sensor_id;sensor_type;location;lat;lon;timestamp;pressure;altitude;pressure_sealevel;temperature;humidity
3428;BME280;1727;42.624;23.406;2023-07-28T00:00:42;94937.00;;;18.05;56.23
3428;BME280;1727;42.624;23.406;2023-07-28T00:03:09;94927.41;;;18.04;56.00
3428;BME280;1727;42.624;23.406;2023-07-28T00:05:36;94936.38;;;18.03;56.38
3428;BME280;1727;42.624;23.406;2023-07-28T00:08:03;94930.41;;;18.01;56.63
3428;BME280;1727;42.624;23.406;2023-07-28T00:10:30;94928.09;;;17.98;56.46
3428;BME280;1727;42.624;23.406;2023-07-28T00:12:59;94931.28;;;17.93;56.72
3428;BME280;1727;42.624;23.406;2023-07-28T00:15:27;94926.28;;;17.90;56.85
3428;BME280;1727;42.624;23.406;2023-07-28T00:17:54;94929.94;;;17.89;56.87
3428;BME280;1727;42.624;23.406;2023-07-28T00:20:21;94921.50;;;17.85;57.22
3428;BME280;1727;42.624;23.406;2023-07-28T00:22:48;94924.81;;;17.87;56.91
3428;BME280;1727;42.624;23.406;2023-07-28T00:25:15;94917.56;;;17.81;57.49
3428;BME280;1727;42.624;23.406;2023-07-28T00:27:41;94920.25;;;17.73;57.27
3428;BME280;1727;42.624;23.406;2023-07-28T00:30:11;94913.97;;;17.66;58.12
3428;BME280;1727;42.624;23.406;2023-07-28T00:32:38;94915.09;;;17.63;58.33
3428;BME280;1727;42.624;23.406;2023-07-28T00:35:05;94913.97;;;17.66;58.38
3428;BME280;1727;42.624;23.406;2023-07-28T00:37:33;94916.50;;;17.51;58.71
3428;BME280;1727;42.624;23.406;2023-07-28T00:39:59;94922.00;;;17.42;59.05
3428;BME280;1727;42.624;23.406;2023-07-28T00:42:26;94917.88;;;17.39;58.97
3428;BME280;1727;42.624;23.406;2023-07-28T00:44:53;94918.53;;;17.33;59.28
3428;BME280;1727;42.624;23.406;2023-07-28T00:47:21;94917.69;;;17.32;59.28
3428;BME280;1727;42.624;23.406;2023-07-28T00:49:48;94929.13;;;17.33;58.81
3428;BME280;1727;42.624;23.406;2023-07-28T00:52:15;94926.19;;;17.28;59.02
3428;BME280;1727;42.624;23.406;2023-07-28T00:54:42;94923.03;;;17.24;59.49
3428;BME280;1727;42.624;23.406;2023-07-28T00:57:09;94929.19;;;17.17;59.76
3428;BME280;1727;42.624;23.406;2023-07-28T00:59:35;94931.41;;;16.89;60.59
3428;BME280;1727;42.624;23.406;2023-07-28T01:02:03;94930.22;;;16.91;60.25
3428;BME280;1727;42.624;23.406;2023-07-28T01:04:31;94933.84;;;16.98;60.20
3428;BME280;1727;42.624;23.406;2023-07-28T01:07:04;94934.53;;;17.00;60.47
3428;BME280;1727;42.624;23.406;2023-07-28T01:09:39;94930.69;;;17.03;60.41
3428;BME280;1727;42.624;23.406;2023-07-28T01:12:08;94923.41;;;17.05;60.83
3428;BME280;1727;42.624;23.406;2023-07-28T01:14:38;94922.25;;;16.99;60.11
3428;BME280;1727;42.624;23.406;2023-07-28T01:17:05;94922.91;;;17.01;60.00
3428;BME280;1727;42.624;23.406;2023-07-28T01:19:33;94920.91;;;17.03;60.50
3428;BME280;1727;42.624;23.406;2023-07-28T01:22:16;94926.22;;;17.03;60.73
3428;BME280;1727;42.624;23.406;2023-07-28T01:24:55;94921.44;;;16.99;60.79
3428;BME280;1727;42.624;23.406;2023-07-28T01:27:27;94916.13;;;16.99;60.53
3428;BME280;1727;42.624;23.406;2023-07-28T01:29:55;94926.56;;;17.09;60.82
3428;BME280;1727;42.624;23.406;2023-07-28T01:32:21;94924.75;;;17.01;60.47
3428;BME280;1727;42.624;23.406;2023-07-28T01:34:48;94925.59;;;16.93;61.03
3428;BME280;1727;42.624;23.406;2023-07-28T01:37:15;94913.16;;;16.94;60.72
3428;BME280;1727;42.624;23.406;2023-07-28T01:39:42;94917.16;;;16.90;61.27
3428;BME280;1727;42.624;23.406;2023-07-28T01:42:09;94917.50;;;16.87;61.20
3428;BME280;1727;42.624;23.406;2023-07-28T01:44:37;94916.81;;;16.93;61.64
3428;BME280;1727;42.624;23.406;2023-07-28T01:47:04;94908.19;;;16.91;61.79
3428;BME280;1727;42.624;23.406;2023-07-28T01:49:31;94919.34;;;16.78;61.96
3428;BME280;1727;42.624;23.406;2023-07-28T01:51:58;94921.13;;;16.86;61.56
3428;BME280;1727;42.624;23.406;2023-07-28T01:54:25;94925.13;;;16.82;61.98
3428;BME280;1727;42.624;23.406;2023-07-28T01:56:51;94928.75;;;16.81;61.67
3428;BME280;1727;42.624;23.406;2023-07-28T01:59:18;94928.59;;;16.74;62.70
3428;BME280;1727;42.624;23.406;2023-07-28T02:01:47;94920.16;;;16.79;62.56
3428;BME280;1727;42.624;23.406;2023-07-28T02:04:14;94915.16;;;16.76;61.88
3428;BME280;1727;42.624;23.406;2023-07-28T02:06:41;94926.59;;;16.68;62.35
3428;BME280;1727;42.624;23.406;2023-07-28T02:09:11;94918.13;;;16.64;62.49
3428;BME280;1727;42.624;23.406;2023-07-28T02:11:38;94924.59;;;16.62;62.28
3428;BME280;1727;42.624;23.406;2023-07-28T02:14:05;94922.44;;;16.57;62.25
3428;BME280;1727;42.624;23.406;2023-07-28T02:16:31;94926.91;;;16.57;62.15
3428;BME280;1727;42.624;23.406;2023-07-28T02:19:00;94924.09;;;16.50;63.00
3428;BME280;1727;42.624;23.406;2023-07-28T02:21:26;94923.44;;;16.32;63.17
3428;BME280;1727;42.624;23.406;2023-07-28T02:23:53;94928.06;;;16.30;62.61
3428;BME280;1727;42.624;23.406;2023-07-28T02:26:20;94934.03;;;16.32;63.23
3428;BME280;1727;42.624;23.406;2023-07-28T02:28:47;94929.53;;;16.24;63.18
3428;BME280;1727;42.624;23.406;2023-07-28T02:31:13;94937.28;;;16.18;63.46
3428;BME280;1727;42.624;23.406;2023-07-28T02:33:40;94933.31;;;16.14;63.17
3428;BME280;1727;42.624;23.406;2023-07-28T02:36:08;94929.69;;;16.15;63.02
3428;BME280;1727;42.624;23.406;2023-07-28T02:38:35;94926.69;;;16.18;62.62
3428;BME280;1727;42.624;23.406;2023-07-28T02:41:02;94928.03;;;16.14;63.14
3428;BME280;1727;42.624;23.406;2023-07-28T02:43:29;94928.34;;;16.10;63.26
3428;BME280;1727;42.624;23.406;2023-07-28T02:45:56;94933.63;;;16.02;63.98
3428;BME280;1727;42.624;23.406;2023-07-28T02:48:24;94929.66;;;16.06;63.58
3428;BME280;1727;42.624;23.406;2023-07-28T02:50:51;94934.63;;;15.93;64.02
3428;BME280;1727;42.624;23.406;2023-07-28T02:53:21;94933.72;;;15.76;64.75
3428;BME280;1727;42.624;23.406;2023-07-28T02:55:48;94937.53;;;15.82;64.82
3428;BME280;1727;42.624;23.406;2023-07-28T02:58:15;94928.63;;;15.83;64.69
3428;BME280;1727;42.624;23.406;2023-07-28T03:00:45;94930.44;;;15.83;64.47
3428;BME280;1727;42.624;23.406;2023-07-28T03:03:12;94925.31;;;15.81;64.64
3428;BME280;1727;42.624;23.406;2023-07-28T03:05:39;94926.47;;;15.87;63.99
3428;BME280;1727;42.624;23.406;2023-07-28T03:08:06;94924.81;;;15.86;64.10
3428;BME280;1727;42.624;23.406;2023-07-28T03:10:34;94919.38;;;15.87;64.43
3428;BME280;1727;42.624;23.406;2023-07-28T03:13:01;94922.81;;;15.79;64.43
3428;BME280;1727;42.624;23.406;2023-07-28T03:15:31;94933.03;;;15.66;65.13
3428;BME280;1727;42.624;23.406;2023-07-28T03:17:57;94928.75;;;15.65;65.27
3428;BME280;1727;42.624;23.406;2023-07-28T03:20:24;94932.53;;;15.63;65.91
3428;BME280;1727;42.624;23.406;2023-07-28T03:22:51;94939.31;;;15.65;65.66
3428;BME280;1727;42.624;23.406;2023-07-28T03:25:20;94932.72;;;16.77;63.96
3428;BME280;1727;42.624;23.406;2023-07-28T03:27:48;94940.66;;;17.73;61.76
3428;BME280;1727;42.624;23.406;2023-07-28T03:30:15;94949.28;;;18.06;59.16
3428;BME280;1727;42.624;23.406;2023-07-28T03:32:41;94946.84;;;18.27;57.56
3428;BME280;1727;42.624;23.406;2023-07-28T03:35:08;94948.22;;;18.15;56.59
3428;BME280;1727;42.624;23.406;2023-07-28T03:37:35;94949.94;;;18.08;58.56
3428;BME280;1727;42.624;23.406;2023-07-28T03:40:02;94949.28;;;18.60;57.10
3428;BME280;1727;42.624;23.406;2023-07-28T03:42:29;94950.59;;;18.64;56.01
3428;BME280;1727;42.624;23.406;2023-07-28T03:44:57;94952.16;;;18.81;55.98
3428;BME280;1727;42.624;23.406;2023-07-28T03:47:24;94950.16;;;18.98;55.51
3428;BME280;1727;42.624;23.406;2023-07-28T03:49:51;94960.59;;;18.99;54.92
3428;BME280;1727;42.624;23.406;2023-07-28T03:52:18;94954.94;;;19.02;55.31
3428;BME280;1727;42.624;23.406;2023-07-28T03:54:45;94952.50;;;19.15;54.38
3428;BME280;1727;42.624;23.406;2023-07-28T03:57:11;94952.16;;;18.96;53.65
3428;BME280;1727;42.624;23.406;2023-07-28T03:59:38;94959.22;;;18.88;54.29
3428;BME280;1727;42.624;23.406;2023-07-28T04:02:06;94962.34;;;19.07;55.30
3428;BME280;1727;42.624;23.406;2023-07-28T04:04:35;94953.06;;;19.40;53.30
3428;BME280;1727;42.624;23.406;2023-07-28T04:07:01;94952.00;;;19.64;52.79
3428;BME280;1727;42.624;23.406;2023-07-28T04:09:28;94951.28;;;20.21;51.67
3428;BME280;1727;42.624;23.406;2023-07-28T04:11:55;94950.88;;;20.54;50.07
3428;BME280;1727;42.624;23.406;2023-07-28T04:14:22;94963.31;;;20.89;48.84
3428;BME280;1727;42.624;23.406;2023-07-28T04:16:48;94969.13;;;21.49;47.03
3428;BME280;1727;42.624;23.406;2023-07-28T04:19:17;94963.19;;;21.88;46.12
3428;BME280;1727;42.624;23.406;2023-07-28T04:21:43;94970.03;;;22.32;44.73
3428;BME280;1727;42.624;23.406;2023-07-28T04:24:11;94966.63;;;22.64;43.80
3428;BME280;1727;42.624;23.406;2023-07-28T04:26:37;94963.94;;;22.77;43.46
3428;BME280;1727;42.624;23.406;2023-07-28T04:29:04;94968.97;;;23.07;42.38
3428;BME280;1727;42.624;23.406;2023-07-28T04:31:31;94963.41;;;23.22;42.33
3428;BME280;1727;42.624;23.406;2023-07-28T04:34:01;94974.97;;;23.42;43.00
3428;BME280;1727;42.624;23.406;2023-07-28T04:36:29;94966.09;;;23.61;42.54
3428;BME280;1727;42.624;23.406;2023-07-28T04:38:57;94964.09;;;24.15;45.14
3428;BME280;1727;42.624;23.406;2023-07-28T04:41:27;94966.34;;;24.31;43.32
3428;BME280;1727;42.624;23.406;2023-07-28T04:43:54;94961.81;;;24.69;41.26
3428;BME280;1727;42.624;23.406;2023-07-28T04:46:23;94961.94;;;25.13;40.77
3428;BME280;1727;42.624;23.406;2023-07-28T04:48:56;94961.25;;;25.49;39.51
3428;BME280;1727;42.624;23.406;2023-07-28T04:51:41;94959.34;;;25.81;38.88
3428;BME280;1727;42.624;23.406;2023-07-28T04:54:08;94970.31;;;25.98;37.11
3428;BME280;1727;42.624;23.406;2023-07-28T04:56:34;94971.59;;;25.95;36.99
3428;BME280;1727;42.624;23.406;2023-07-28T04:59:01;94962.09;;;25.92;36.27
3428;BME280;1727;42.624;23.406;2023-07-28T05:01:36;94966.06;;;25.90;36.29
3428;BME280;1727;42.624;23.406;2023-07-28T05:04:06;94962.69;;;25.76;36.94
3428;BME280;1727;42.624;23.406;2023-07-28T05:06:39;94958.28;;;25.82;37.17
3428;BME280;1727;42.624;23.406;2023-07-28T05:09:22;94956.53;;;25.69;43.03
3428;BME280;1727;42.624;23.406;2023-07-28T05:11:53;94969.63;;;25.84;38.78
3428;BME280;1727;42.624;23.406;2023-07-28T05:14:26;94966.75;;;26.04;37.83
3428;BME280;1727;42.624;23.406;2023-07-28T05:16:55;94966.53;;;26.05;37.87
3428;BME280;1727;42.624;23.406;2023-07-28T05:19:25;94963.66;;;26.00;37.19
3428;BME280;1727;42.624;23.406;2023-07-28T05:21:56;94963.59;;;26.07;36.43
3428;BME280;1727;42.624;23.406;2023-07-28T05:24:28;94964.19;;;26.27;36.23
3428;BME280;1727;42.624;23.406;2023-07-28T05:26:57;94960.22;;;26.30;36.37
3428;BME280;1727;42.624;23.406;2023-07-28T05:29:30;94967.22;;;26.37;35.98
3428;BME280;1727;42.624;23.406;2023-07-28T05:32:01;94962.19;;;26.41;35.83
3428;BME280;1727;42.624;23.406;2023-07-28T05:34:31;94955.28;;;26.63;35.69
3428;BME280;1727;42.624;23.406;2023-07-28T05:37:01;94959.03;;;26.62;35.86
3428;BME280;1727;42.624;23.406;2023-07-28T05:39:32;94962.53;;;26.63;36.25
3428;BME280;1727;42.624;23.406;2023-07-28T05:41:58;94954.75;;;26.84;37.20
3428;BME280;1727;42.624;23.406;2023-07-28T05:44:25;94954.44;;;25.71;37.38
3428;BME280;1727;42.624;23.406;2023-07-28T05:46:53;94959.47;;;25.11;37.54
3428;BME280;1727;42.624;23.406;2023-07-28T05:49:21;94954.25;;;24.60;39.32
3428;BME280;1727;42.624;23.406;2023-07-28T05:51:48;94957.81;;;24.79;39.95
3428;BME280;1727;42.624;23.406;2023-07-28T05:54:15;94959.03;;;25.14;38.78
3428;BME280;1727;42.624;23.406;2023-07-28T05:56:48;94946.66;;;25.13;38.45
3428;BME280;1727;42.624;23.406;2023-07-28T05:59:15;94944.34;;;24.54;40.48
3428;BME280;1727;42.624;23.406;2023-07-28T06:01:44;94943.91;;;24.12;41.88
3428;BME280;1727;42.624;23.406;2023-07-28T06:04:13;94941.06;;;23.94;42.96
3428;BME280;1727;42.624;23.406;2023-07-28T06:06:40;94946.94;;;23.58;44.65
3428;BME280;1727;42.624;23.406;2023-07-28T06:09:09;94951.88;;;23.08;45.26
3428;BME280;1727;42.624;23.406;2023-07-28T06:11:39;94942.38;;;23.12;45.52
3428;BME280;1727;42.624;23.406;2023-07-28T06:14:07;94945.75;;;22.40;47.15
3428;BME280;1727;42.624;23.406;2023-07-28T06:16:37;94950.94;;;22.54;47.38
3428;BME280;1727;42.624;23.406;2023-07-28T06:19:06;94936.84;;;22.94;46.32
3428;BME280;1727;42.624;23.406;2023-07-28T06:21:33;94937.03;;;23.12;45.34
3428;BME280;1727;42.624;23.406;2023-07-28T06:24:00;94943.44;;;23.17;45.82
3428;BME280;1727;42.624;23.406;2023-07-28T06:26:27;94933.31;;;23.46;45.21
3428;BME280;1727;42.624;23.406;2023-07-28T06:28:54;94931.97;;;24.01;43.65
3428;BME280;1727;42.624;23.406;2023-07-28T06:31:22;94933.16;;;24.12;42.98
3428;BME280;1727;42.624;23.406;2023-07-28T06:33:49;94924.56;;;24.03;42.69
3428;BME280;1727;42.624;23.406;2023-07-28T06:36:15;94928.88;;;24.49;42.23
3428;BME280;1727;42.624;23.406;2023-07-28T06:38:43;94926.19;;;24.87;41.02
3428;BME280;1727;42.624;23.406;2023-07-28T06:41:17;94921.81;;;24.61;41.23
3428;BME280;1727;42.624;23.406;2023-07-28T06:43:46;94926.88;;;25.08;40.35
3428;BME280;1727;42.624;23.406;2023-07-28T06:46:14;94926.81;;;25.14;40.69
3428;BME280;1727;42.624;23.406;2023-07-28T06:48:42;94920.75;;;25.00;39.99
3428;BME280;1727;42.624;23.406;2023-07-28T06:51:11;94930.47;;;24.95;39.65
3428;BME280;1727;42.624;23.406;2023-07-28T06:53:41;94926.84;;;24.45;41.49
3428;BME280;1727;42.624;23.406;2023-07-28T06:56:10;94922.31;;;24.45;40.86
3428;BME280;1727;42.624;23.406;2023-07-28T06:58:37;94933.19;;;23.99;41.99
3428;BME280;1727;42.624;23.406;2023-07-28T07:01:05;94937.63;;;24.38;42.52
3428;BME280;1727;42.624;23.406;2023-07-28T07:03:34;94929.59;;;24.38;40.90
3428;BME280;1727;42.624;23.406;2023-07-28T07:06:06;94918.13;;;24.56;41.41
3428;BME280;1727;42.624;23.406;2023-07-28T07:08:33;94926.19;;;24.87;40.59
3428;BME280;1727;42.624;23.406;2023-07-28T07:11:03;94922.31;;;24.77;40.82
3428;BME280;1727;42.624;23.406;2023-07-28T07:13:31;94921.44;;;25.14;40.29
3428;BME280;1727;42.624;23.406;2023-07-28T07:15:58;94918.72;;;25.46;40.35
3428;BME280;1727;42.624;23.406;2023-07-28T07:18:26;94919.47;;;25.53;39.56
3428;BME280;1727;42.624;23.406;2023-07-28T07:20:53;94913.91;;;25.73;39.35
3428;BME280;1727;42.624;23.406;2023-07-28T07:23:21;94925.66;;;25.53;39.65
3428;BME280;1727;42.624;23.406;2023-07-28T07:25:49;94923.94;;;25.59;39.08
3428;BME280;1727;42.624;23.406;2023-07-28T07:28:16;94919.53;;;25.46;39.32
3428;BME280;1727;42.624;23.406;2023-07-28T07:30:45;94918.50;;;25.66;39.81
3428;BME280;1727;42.624;23.406;2023-07-28T07:33:14;94916.44;;;25.68;38.35
3428;BME280;1727;42.624;23.406;2023-07-28T07:35:41;94922.72;;;25.98;39.34
3428;BME280;1727;42.624;23.406;2023-07-28T07:38:08;94921.22;;;26.20;39.56
3428;BME280;1727;42.624;23.406;2023-07-28T07:40:37;94921.63;;;26.06;38.67
3428;BME280;1727;42.624;23.406;2023-07-28T07:43:03;94923.34;;;25.57;39.00
3428;BME280;1727;42.624;23.406;2023-07-28T07:45:31;94925.47;;;25.73;40.30
3428;BME280;1727;42.624;23.406;2023-07-28T07:47:58;94927.75;;;26.13;39.33
3428;BME280;1727;42.624;23.406;2023-07-28T07:50:25;94931.19;;;25.83;38.13
3428;BME280;1727;42.624;23.406;2023-07-28T07:52:51;94929.41;;;25.02;39.83
3428;BME280;1727;42.624;23.406;2023-07-28T07:55:18;94938.56;;;25.45;39.82
3428;BME280;1727;42.624;23.406;2023-07-28T07:57:46;94932.22;;;26.01;39.13
3428;BME280;1727;42.624;23.406;2023-07-28T08:00:14;94934.47;;;26.40;37.85
3428;BME280;1727;42.624;23.406;2023-07-28T08:02:41;94938.59;;;26.54;37.74
3428;BME280;1727;42.624;23.406;2023-07-28T08:05:08;94939.38;;;26.62;38.30
3428;BME280;1727;42.624;23.406;2023-07-28T08:07:35;94937.03;;;26.35;38.40
3428;BME280;1727;42.624;23.406;2023-07-28T08:10:02;94933.19;;;26.43;38.03
3428;BME280;1727;42.624;23.406;2023-07-28T08:12:29;94947.72;;;26.72;37.08
3428;BME280;1727;42.624;23.406;2023-07-28T08:14:57;94939.41;;;26.85;36.82
3428;BME280;1727;42.624;23.406;2023-07-28T08:17:24;94932.78;;;26.58;37.92
3428;BME280;1727;42.624;23.406;2023-07-28T08:19:53;94933.06;;;26.38;38.21
3428;BME280;1727;42.624;23.406;2023-07-28T08:22:20;94932.22;;;26.37;37.42
3428;BME280;1727;42.624;23.406;2023-07-28T08:24:47;94930.47;;;26.61;37.87
3428;BME280;1727;42.624;23.406;2023-07-28T08:27:16;94925.84;;;26.80;37.53
3428;BME280;1727;42.624;23.406;2023-07-28T08:29:43;94922.56;;;26.48;38.07
3428;BME280;1727;42.624;23.406;2023-07-28T08:32:11;94922.78;;;26.46;37.19
3428;BME280;1727;42.624;23.406;2023-07-28T08:34:41;94925.38;;;26.83;37.44
3428;BME280;1727;42.624;23.406;2023-07-28T08:37:09;94930.97;;;27.11;37.40
3428;BME280;1727;42.624;23.406;2023-07-28T08:39:36;94924.00;;;26.92;37.47
3428;BME280;1727;42.624;23.406;2023-07-28T08:42:04;94916.59;;;26.88;37.42
3428;BME280;1727;42.624;23.406;2023-07-28T08:44:32;94910.78;;;26.12;37.95
3428;BME280;1727;42.624;23.406;2023-07-28T08:47:02;94918.44;;;26.45;38.67
3428;BME280;1727;42.624;23.406;2023-07-28T08:49:33;94911.00;;;26.89;36.99
3428;BME280;1727;42.624;23.406;2023-07-28T08:52:05;94908.25;;;27.07;36.39
3428;BME280;1727;42.624;23.406;2023-07-28T08:54:32;94910.84;;;26.84;36.85
3428;BME280;1727;42.624;23.406;2023-07-28T08:56:59;94913.75;;;27.12;36.55
3428;BME280;1727;42.624;23.406;2023-07-28T08:59:27;94903.31;;;27.04;36.82
3428;BME280;1727;42.624;23.406;2023-07-28T09:01:59;94900.66;;;27.28;36.55
3428;BME280;1727;42.624;23.406;2023-07-28T09:04:27;94902.06;;;27.19;37.30
3428;BME280;1727;42.624;23.406;2023-07-28T09:06:55;94901.94;;;27.13;36.06
3428;BME280;1727;42.624;23.406;2023-07-28T09:09:32;94887.66;;;27.25;36.66
3428;BME280;1727;42.624;23.406;2023-07-28T09:12:02;94885.56;;;27.27;36.42
3428;BME280;1727;42.624;23.406;2023-07-28T09:14:37;94869.84;;;27.24;36.75
3428;BME280;1727;42.624;23.406;2023-07-28T09:17:08;94872.06;;;27.03;35.51
3428;BME280;1727;42.624;23.406;2023-07-28T09:19:49;94873.84;;;27.21;36.45
3428;BME280;1727;42.624;23.406;2023-07-28T09:22:20;94853.78;;;27.17;36.63
3428;BME280;1727;42.624;23.406;2023-07-28T09:24:50;94864.22;;;27.02;36.92
3428;BME280;1727;42.624;23.406;2023-07-28T09:27:26;94850.06;;;27.18;36.85
3428;BME280;1727;42.624;23.406;2023-07-28T09:29:55;94847.94;;;27.32;36.64
3428;BME280;1727;42.624;23.406;2023-07-28T09:32:30;94845.81;;;27.34;36.49
3428;BME280;1727;42.624;23.406;2023-07-28T09:35:11;94848.13;;;26.95;36.38
3428;BME280;1727;42.624;23.406;2023-07-28T09:37:42;94834.81;;;27.00;36.84
3428;BME280;1727;42.624;23.406;2023-07-28T09:40:11;94831.56;;;27.22;36.64
3428;BME280;1727;42.624;23.406;2023-07-28T09:42:38;94828.28;;;27.20;35.45
3428;BME280;1727;42.624;23.406;2023-07-28T09:45:06;94820.19;;;27.20;36.15
3428;BME280;1727;42.624;23.406;2023-07-28T09:47:34;94822.16;;;27.24;37.19
3428;BME280;1727;42.624;23.406;2023-07-28T09:50:08;94816.41;;;27.44;35.37
3428;BME280;1727;42.624;23.406;2023-07-28T09:52:45;94810.53;;;27.59;35.11
3428;BME280;1727;42.624;23.406;2023-07-28T09:55:13;94810.53;;;27.59;34.86
3428;BME280;1727;42.624;23.406;2023-07-28T09:57:45;94818.50;;;27.77;33.72
3428;BME280;1727;42.624;23.406;2023-07-28T10:00:16;94817.78;;;27.82;34.21
3428;BME280;1727;42.624;23.406;2023-07-28T10:02:44;94810.22;;;27.20;36.82
3428;BME280;1727;42.624;23.406;2023-07-28T10:05:11;94815.09;;;27.58;35.42
3428;BME280;1727;42.624;23.406;2023-07-28T10:07:43;94814.19;;;27.41;35.38
3428;BME280;1727;42.624;23.406;2023-07-28T10:10:14;94806.47;;;27.33;35.63
3428;BME280;1727;42.624;23.406;2023-07-28T10:12:47;94806.72;;;27.20;35.02
3428;BME280;1727;42.624;23.406;2023-07-28T10:15:17;94812.31;;;27.06;34.97
3428;BME280;1727;42.624;23.406;2023-07-28T10:17:45;94809.19;;;27.21;39.45
3428;BME280;1727;42.624;23.406;2023-07-28T10:20:30;94802.47;;;27.47;41.25
3428;BME280;1727;42.624;23.406;2023-07-28T10:23:12;94803.81;;;27.85;35.31
3428;BME280;1727;42.624;23.406;2023-07-28T10:25:43;94800.34;;;28.01;38.31
3428;BME280;1727;42.624;23.406;2023-07-28T10:28:26;94802.63;;;27.92;34.54
3428;BME280;1727;42.624;23.406;2023-07-28T10:30:56;94797.38;;;27.86;37.26
3428;BME280;1727;42.624;23.406;2023-07-28T10:33:29;94790.09;;;27.86;34.78
3428;BME280;1727;42.624;23.406;2023-07-28T10:35:57;94787.63;;;27.85;36.82
3428;BME280;1727;42.624;23.406;2023-07-28T10:38:33;94782.16;;;28.08;34.55
3428;BME280;1727;42.624;23.406;2023-07-28T10:41:12;94777.47;;;28.32;35.56
3428;BME280;1727;42.624;23.406;2023-07-28T10:43:43;94775.47;;;28.39;34.39
3428;BME280;1727;42.624;23.406;2023-07-28T10:46:16;94771.13;;;28.55;39.86
3428;BME280;1727;42.624;23.406;2023-07-28T10:48:46;94766.75;;;28.65;35.55
3428;BME280;1727;42.624;23.406;2023-07-28T10:51:20;94766.56;;;28.72;34.36
3428;BME280;1727;42.624;23.406;2023-07-28T10:53:51;94771.97;;;28.72;38.13
3428;BME280;1727;42.624;23.406;2023-07-28T10:56:18;94762.78;;;28.73;34.58
3428;BME280;1727;42.624;23.406;2023-07-28T10:58:45;94757.22;;;28.80;33.88
3428;BME280;1727;42.624;23.406;2023-07-28T11:01:14;94759.19;;;28.84;33.24
3428;BME280;1727;42.624;23.406;2023-07-28T11:03:41;94750.03;;;28.85;35.12
3428;BME280;1727;42.624;23.406;2023-07-28T11:06:08;94746.53;;;29.02;35.08
3428;BME280;1727;42.624;23.406;2023-07-28T11:08:35;94733.16;;;28.78;32.56
3428;BME280;1727;42.624;23.406;2023-07-28T11:11:06;94733.97;;;28.79;32.40
3428;BME280;1727;42.624;23.406;2023-07-28T11:13:32;94729.41;;;28.79;33.53
3428;BME280;1727;42.624;23.406;2023-07-28T11:16:02;94733.59;;;28.87;33.79
3428;BME280;1727;42.624;23.406;2023-07-28T11:18:30;94729.81;;;29.05;32.80
3428;BME280;1727;42.624;23.406;2023-07-28T11:20:57;94728.00;;;29.10;31.91
3428;BME280;1727;42.624;23.406;2023-07-28T11:23:25;94722.91;;;29.14;32.67
3428;BME280;1727;42.624;23.406;2023-07-28T11:25:53;94720.41;;;28.90;32.12
3428;BME280;1727;42.624;23.406;2023-07-28T11:28:22;94722.09;;;28.80;32.91
3428;BME280;1727;42.624;23.406;2023-07-28T11:30:48;94716.22;;;28.99;32.60
3428;BME280;1727;42.624;23.406;2023-07-28T11:33:15;94709.56;;;29.07;32.36
3428;BME280;1727;42.624;23.406;2023-07-28T11:35:44;94703.34;;;29.07;32.43
3428;BME280;1727;42.624;23.406;2023-07-28T11:38:12;94706.81;;;28.85;31.86
3428;BME280;1727;42.624;23.406;2023-07-28T11:40:42;94695.78;;;28.70;34.04
3428;BME280;1727;42.624;23.406;2023-07-28T11:43:09;94693.66;;;28.55;32.85
3428;BME280;1727;42.624;23.406;2023-07-28T11:45:38;94703.16;;;28.41;33.71
3428;BME280;1727;42.624;23.406;2023-07-28T11:48:05;94697.94;;;28.06;34.10
3428;BME280;1727;42.624;23.406;2023-07-28T11:50:35;94694.06;;;28.30;34.84
3428;BME280;1727;42.624;23.406;2023-07-28T11:53:04;94684.56;;;28.61;34.29
3428;BME280;1727;42.624;23.406;2023-07-28T11:55:31;94691.94;;;28.66;33.32
3428;BME280;1727;42.624;23.406;2023-07-28T11:58:01;94689.81;;;28.34;32.91
3428;BME280;1727;42.624;23.406;2023-07-28T12:00:30;94691.78;;;28.39;33.44
3428;BME280;1727;42.624;23.406;2023-07-28T12:03:10;94694.63;;;28.32;32.74
3428;BME280;1727;42.624;23.406;2023-07-28T12:05:38;94693.56;;;28.33;32.78
3428;BME280;1727;42.624;23.406;2023-07-28T12:08:08;94686.22;;;28.46;34.63
3428;BME280;1727;42.624;23.406;2023-07-28T12:10:35;94695.84;;;28.58;33.74
3428;BME280;1727;42.624;23.406;2023-07-28T12:13:06;94682.28;;;28.70;33.63
3428;BME280;1727;42.624;23.406;2023-07-28T12:15:40;94682.41;;;28.80;32.99
3428;BME280;1727;42.624;23.406;2023-07-28T12:18:10;94677.06;;;28.63;31.63
3428;BME280;1727;42.624;23.406;2023-07-28T12:20:40;94672.16;;;28.44;32.44
3428;BME280;1727;42.624;23.406;2023-07-28T12:23:07;94666.88;;;28.20;33.06
3428;BME280;1727;42.624;23.406;2023-07-28T12:25:36;94675.91;;;28.26;32.25
3428;BME280;1727;42.624;23.406;2023-07-28T12:28:03;94656.50;;;28.29;33.85
3428;BME280;1727;42.624;23.406;2023-07-28T12:30:31;94659.22;;;28.46;34.99
3428;BME280;1727;42.624;23.406;2023-07-28T12:32:58;94656.00;;;28.65;33.51
3428;BME280;1727;42.624;23.406;2023-07-28T12:35:27;94654.34;;;28.81;34.12
3428;BME280;1727;42.624;23.406;2023-07-28T12:37:58;94661.81;;;28.74;33.91
3428;BME280;1727;42.624;23.406;2023-07-28T12:40:26;94658.03;;;28.58;34.57
3428;BME280;1727;42.624;23.406;2023-07-28T12:42:54;94646.09;;;28.54;34.25
3428;BME280;1727;42.624;23.406;2023-07-28T12:45:21;94644.66;;;28.47;33.34
3428;BME280;1727;42.624;23.406;2023-07-28T12:47:51;94649.69;;;28.60;34.28
3428;BME280;1727;42.624;23.406;2023-07-28T12:50:18;94638.00;;;28.71;34.64
3428;BME280;1727;42.624;23.406;2023-07-28T12:52:47;94646.78;;;28.83;34.59
3428;BME280;1727;42.624;23.406;2023-07-28T12:55:14;94644.09;;;28.83;34.55
3428;BME280;1727;42.624;23.406;2023-07-28T12:57:41;94644.19;;;28.88;34.65
3428;BME280;1727;42.624;23.406;2023-07-28T13:00:09;94642.88;;;28.91;33.22
3428;BME280;1727;42.624;23.406;2023-07-28T13:02:40;94634.03;;;28.95;33.97
3428;BME280;1727;42.624;23.406;2023-07-28T13:05:08;94641.66;;;28.98;33.69
3428;BME280;1727;42.624;23.406;2023-07-28T13:07:36;94635.72;;;29.02;34.14
3428;BME280;1727;42.624;23.406;2023-07-28T13:10:07;94633.66;;;29.09;33.96
3428;BME280;1727;42.624;23.406;2023-07-28T13:12:34;94629.53;;;28.84;34.28
3428;BME280;1727;42.624;23.406;2023-07-28T13:15:01;94628.88;;;28.94;33.69
3428;BME280;1727;42.624;23.406;2023-07-28T13:17:28;94616.75;;;28.96;34.04